Time;durP1;ratioP1;P1;durP2;ratioP2;P2;SDS_P1;SDS_P2;PMS_P1;PMS_P2;Temp;Humidity;BMP_temperature;BMP_pressure;BME280_temperature;BME280_humidity;BME280_pressure;Samples;Min_cycle;Max_cycle;Signal;HPM_P1;HPM_P2
2022/11/09 00:01:28;;;;;;;;;;;13.40;94.30;;;;;;5050122;28;19963;-74
2022/11/09 00:03:55;;;;;;;;;;;13.40;94.20;;;;;;5045267;28;19916;-74
2022/11/09 00:06:21;;;;;;;;;;;13.40;94.30;;;;;;5045149;28;19963;-74
2022/11/09 00:08:46;;;;;;;;;;;13.40;94.20;;;;;;5063810;28;19923;-74
2022/11/09 00:11:12;;;;;;;;;;;13.40;94.30;;;;;;5084627;28;19943;-74
2022/11/09 00:13:38;;;;;;;;;;;13.40;94.20;;;;;;5076257;28;19965;-75
2022/11/09 00:16:05;;;;;;;;;;;13.40;94.30;;;;;;5074873;28;19924;-74
2022/11/09 00:18:30;;;;;;;;;;;13.40;94.30;;;;;;5064330;28;19920;-74
2022/11/09 00:20:56;;;;;;;;;;;13.40;94.30;;;;;;5064501;28;19913;-74
2022/11/09 00:23:22;;;;;;;;;;;13.40;94.30;;;;;;5064876;28;20599;-74
2022/11/09 00:25:48;;;;;;;;;;;13.40;94.30;;;;;;5066071;28;19912;-74
2022/11/09 00:28:13;;;;;;;;;;;13.40;94.30;;;;;;5064358;28;20465;-74
2022/11/09 00:30:39;;;;;;;;;;;13.40;94.30;;;;;;5064118;28;19920;-74
2022/11/09 00:33:05;;;;;;;;;;;13.40;94.30;;;;;;5063772;28;20515;-74
2022/11/09 00:35:31;;;;;;;;;;;13.40;94.30;;;;;;5064105;28;19978;-74
2022/11/09 00:37:56;;;;;;;;;;;13.40;94.30;;;;;;5068563;28;19923;-74
2022/11/09 00:40:22;;;;;;;;;;;13.40;94.30;;;;;;5073364;28;19924;-74
2022/11/09 00:42:47;;;;;;;;;;;13.40;94.40;;;;;;5070334;28;20288;-74
2022/11/09 00:45:13;;;;;;;;;;;13.40;94.40;;;;;;5083977;28;19916;-74
2022/11/09 00:47:38;;;;;;;;;;;13.40;94.40;;;;;;5084723;28;20324;-74
2022/11/09 00:50:04;;;;;;;;;;;13.30;94.40;;;;;;5078287;28;19913;-74
2022/11/09 00:52:30;;;;;;;;;;;13.40;94.50;;;;;;5070389;28;19920;-75
2022/11/09 00:54:55;;;;;;;;;;;13.40;94.40;;;;;;5084879;28;19912;-74
2022/11/09 00:57:21;;;;;;;;;;;13.30;94.50;;;;;;5084929;28;19969;-74
2022/11/09 00:59:46;;;;;;;;;;;13.30;94.50;;;;;;5077825;28;20384;-74
2022/11/09 01:02:12;;;;;;;;;;;13.30;94.50;;;;;;5044321;28;19947;-74
2022/11/09 01:04:37;;;;;;;;;;;13.30;94.50;;;;;;5044731;28;19939;-74
2022/11/09 01:07:03;;;;;;;;;;;13.30;94.50;;;;;;5044317;28;20337;-74
2022/11/09 01:09:28;;;;;;;;;;;13.30;94.50;;;;;;5057223;28;20640;-74
2022/11/09 01:11:54;;;;;;;;;;;13.30;94.60;;;;;;5065139;28;19920;-74
2022/11/09 01:14:20;;;;;;;;;;;13.30;94.60;;;;;;5083500;28;20494;-74
2022/11/09 01:16:45;;;;;;;;;;;13.30;94.60;;;;;;5083479;28;19911;-74
2022/11/09 01:19:11;;;;;;;;;;;13.30;94.60;;;;;;5083075;28;20624;-74
2022/11/09 01:21:36;;;;;;;;;;;13.30;94.50;;;;;;5084825;28;20024;-74
2022/11/09 01:24:02;;;;;;;;;;;13.30;94.60;;;;;;5084745;28;20418;-74
2022/11/09 01:26:28;;;;;;;;;;;13.30;94.50;;;;;;5075491;28;19920;-74
2022/11/09 01:28:53;;;;;;;;;;;13.30;94.60;;;;;;5065252;28;19917;-74
2022/11/09 01:31:20;;;;;;;;;;;13.20;94.60;;;;;;5064685;28;19921;-74
2022/11/09 01:33:45;;;;;;;;;;;13.20;94.60;;;;;;5064863;28;19912;-74
2022/11/09 01:36:12;;;;;;;;;;;13.20;94.60;;;;;;5064765;28;19913;-74
2022/11/09 01:38:38;;;;;;;;;;;13.20;94.60;;;;;;5097086;28;19917;-73
2022/11/09 01:41:05;;;;;;;;;;;13.20;94.60;;;;;;5063998;28;19917;-74
2022/11/09 01:43:30;;;;;;;;;;;13.20;94.60;;;;;;5074842;28;19916;-74
2022/11/09 01:45:59;;;;;;;;;;;13.20;94.60;;;;;;5084937;28;19986;-74
2022/11/09 01:48:38;;;;;;;;;;;13.20;94.60;;;;;;5084899;28;19944;-74
2022/11/09 01:51:08;;;;;;;;;;;13.20;94.60;;;;;;5070687;28;19987;-74
2022/11/09 01:53:36;;;;;;;;;;;13.20;94.50;;;;;;5064767;28;19958;-74
2022/11/09 01:56:04;;;;;;;;;;;13.20;94.50;;;;;;5064415;28;20464;-73
2022/11/09 01:58:31;;;;;;;;;;;13.20;94.50;;;;;;5065824;28;20540;-74
2022/11/09 02:00:57;;;;;;;;;;;13.20;94.50;;;;;;5057817;28;20298;-74
2022/11/09 02:03:25;;;;;;;;;;;13.20;94.60;;;;;;5042788;28;20403;-74
2022/11/09 02:05:51;;;;;;;;;;;13.20;94.50;;;;;;5044281;28;19913;-74
2022/11/09 02:08:18;;;;;;;;;;;13.20;94.70;;;;;;5042768;28;20369;-74
2022/11/09 02:10:43;;;;;;;;;;;13.20;94.60;;;;;;5045004;28;19916;-73
2022/11/09 02:13:10;;;;;;;;;;;13.20;94.60;;;;;;5072060;28;20490;-74
2022/11/09 02:15:35;;;;;;;;;;;13.20;94.60;;;;;;5077313;28;19919;-74
2022/11/09 02:18:01;;;;;;;;;;;13.20;94.60;;;;;;5064557;28;20221;-74
2022/11/09 02:20:27;;;;;;;;;;;13.10;94.70;;;;;;5066576;28;19964;-73
2022/11/09 02:22:52;;;;;;;;;;;13.20;94.70;;;;;;5067760;28;19912;-74
2022/11/09 02:25:18;;;;;;;;;;;13.20;94.70;;;;;;5067556;28;19913;-74
2022/11/09 02:27:44;;;;;;;;;;;13.10;94.60;;;;;;5067979;28;20557;-74
2022/11/09 02:30:10;;;;;;;;;;;13.20;94.70;;;;;;5067475;28;20361;-74
2022/11/09 02:32:36;;;;;;;;;;;13.10;94.70;;;;;;5060520;28;20374;-74
2022/11/09 02:35:02;;;;;;;;;;;13.20;94.70;;;;;;5080080;28;19913;-73
2022/11/09 02:37:29;;;;;;;;;;;13.20;94.70;;;;;;5047688;28;19966;-74
2022/11/09 02:39:55;;;;;;;;;;;13.10;94.70;;;;;;5047069;28;20571;-74
2022/11/09 02:42:21;;;;;;;;;;;13.10;94.80;;;;;;5050510;28;19913;-74
2022/11/09 02:44:48;;;;;;;;;;;13.10;94.80;;;;;;5087502;28;19912;-74
2022/11/09 02:47:14;;;;;;;;;;;13.10;94.80;;;;;;5087549;28;19918;-73
2022/11/09 02:49:39;;;;;;;;;;;13.10;94.80;;;;;;5084759;28;20011;-73
2022/11/09 02:52:05;;;;;;;;;;;13.10;94.70;;;;;;5067382;28;19916;-74
2022/11/09 02:54:30;;;;;;;;;;;13.10;94.80;;;;;;5067502;28;19913;-74
2022/11/09 02:56:56;;;;;;;;;;;13.10;94.80;;;;;;5067041;28;19919;-74
2022/11/09 02:59:21;;;;;;;;;;;13.10;94.80;;;;;;5068512;28;19916;-74
2022/11/09 03:01:47;;;;;;;;;;;13.10;94.80;;;;;;5066619;28;19923;-74
2022/11/09 03:04:12;;;;;;;;;;;13.00;94.80;;;;;;5067367;28;20594;-74
2022/11/09 03:06:38;;;;;;;;;;;13.00;94.80;;;;;;5067242;28;19995;-74
2022/11/09 03:09:04;;;;;;;;;;;13.00;94.80;;;;;;5067262;28;20468;-74
2022/11/09 03:11:30;;;;;;;;;;;13.00;94.80;;;;;;5066783;28;19966;-73
2022/11/09 03:13:55;;;;;;;;;;;13.00;94.80;;;;;;5080813;28;19920;-74
2022/11/09 03:16:21;;;;;;;;;;;13.00;94.80;;;;;;5087377;28;19919;-73
2022/11/09 03:18:46;;;;;;;;;;;13.00;94.80;;;;;;5086622;28;20364;-74
2022/11/09 03:21:12;;;;;;;;;;;13.00;94.80;;;;;;5086667;28;19919;-74
2022/11/09 03:23:37;;;;;;;;;;;13.00;94.70;;;;;;5086690;28;20372;-73
2022/11/09 03:26:03;;;;;;;;;;;13.00;94.60;;;;;;5086833;28;19962;-74
2022/11/09 03:28:28;;;;;;;;;;;13.00;94.70;;;;;;5087060;28;20474;-74
2022/11/09 03:30:54;;;;;;;;;;;13.00;94.70;;;;;;5058408;28;20362;-74
2022/11/09 03:33:20;;;;;;;;;;;13.00;94.70;;;;;;5046742;28;19974;-74
2022/11/09 03:35:45;;;;;;;;;;;13.00;94.70;;;;;;5045673;28;19916;-74
2022/11/09 03:38:11;;;;;;;;;;;13.00;94.70;;;;;;5046532;28;20658;-73
2022/11/09 03:40:36;;;;;;;;;;;13.00;94.70;;;;;;5045879;28;19919;-73
2022/11/09 03:43:02;;;;;;;;;;;13.00;94.60;;;;;;5061108;28;20612;-74
2022/11/09 03:45:27;;;;;;;;;;;13.00;94.50;;;;;;5066876;28;20099;-74
2022/11/09 03:47:58;;;;;;;;;;;13.00;94.60;;;;;;5066897;28;19920;-74
2022/11/09 03:50:24;;;;;;;;;;;13.00;94.60;;;;;;5053745;28;19923;-74
2022/11/09 03:52:50;;;;;;;;;;;13.00;94.60;;;;;;5065884;28;20031;-74
2022/11/09 03:55:15;;;;;;;;;;;13.00;94.60;;;;;;5066184;28;20384;-74
2022/11/09 03:57:42;;;;;;;;;;;13.00;94.60;;;;;;5066440;28;20406;-74
2022/11/09 04:00:08;;;;;;;;;;;13.00;94.60;;;;;;5065869;28;19913;-74
2022/11/09 04:02:34;;;;;;;;;;;13.00;94.60;;;;;;5070948;28;19912;-74
2022/11/09 04:04:59;;;;;;;;;;;13.00;94.60;;;;;;5086225;28;19923;-74
2022/11/09 04:07:25;;;;;;;;;;;13.00;94.50;;;;;;5085623;28;19912;-74
2022/11/09 04:09:50;;;;;;;;;;;13.00;94.60;;;;;;5086106;28;19912;-74
2022/11/09 04:12:15;;;;;;;;;;;13.00;94.50;;;;;;5077812;28;20658;-74
2022/11/09 04:14:41;;;;;;;;;;;13.00;94.50;;;;;;5086123;28;19912;-74
2022/11/09 04:17:06;;;;;;;;;;;13.00;94.50;;;;;;5072180;28;19978;-74
2022/11/09 04:19:32;;;;;;;;;;;13.10;94.50;;;;;;5065810;28;19916;-74
2022/11/09 04:21:57;;;;;;;;;;;13.10;94.50;;;;;;5063695;28;19913;-74
2022/11/09 04:24:23;;;;;;;;;;;13.10;94.60;;;;;;5064830;28;20312;-74
2022/11/09 04:26:48;;;;;;;;;;;13.10;94.60;;;;;;5064705;28;19919;-74
2022/11/09 04:29:14;;;;;;;;;;;13.10;94.60;;;;;;5064223;28;19916;-73
2022/11/09 04:31:39;;;;;;;;;;;13.00;94.50;;;;;;5065305;28;19983;-74
2022/11/09 04:34:05;;;;;;;;;;;13.10;94.60;;;;;;5065775;28;20392;-74
2022/11/09 04:36:30;;;;;;;;;;;13.10;94.60;;;;;;5066872;28;19921;-74
2022/11/09 04:38:56;;;;;;;;;;;13.10;94.60;;;;;;5070725;28;20032;-74
2022/11/09 04:41:21;;;;;;;;;;;13.00;94.60;;;;;;5064591;28;20246;-74
2022/11/09 04:43:47;;;;;;;;;;;13.10;94.60;;;;;;5078712;28;19923;-74
2022/11/09 04:46:12;;;;;;;;;;;13.10;94.60;;;;;;5085714;28;19943;-74
2022/11/09 04:48:38;;;;;;;;;;;13.10;94.60;;;;;;5085560;28;19919;-74
2022/11/09 04:51:05;;;;;;;;;;;13.10;94.60;;;;;;5071647;28;20600;-74
2022/11/09 04:53:31;;;;;;;;;;;13.00;94.60;;;;;;5080192;28;20029;-74
2022/11/09 04:55:56;;;;;;;;;;;13.10;94.60;;;;;;5084838;28;20632;-73
2022/11/09 04:58:22;;;;;;;;;;;13.00;94.60;;;;;;5085584;28;19957;-73
2022/11/09 05:00:48;;;;;;;;;;;13.10;94.60;;;;;;5060886;28;19913;-74
2022/11/09 05:03:13;;;;;;;;;;;13.00;94.60;;;;;;5045448;28;19994;-74
2022/11/09 05:05:39;;;;;;;;;;;13.10;94.70;;;;;;5045224;28;20640;-74
2022/11/09 05:08:05;;;;;;;;;;;13.10;94.60;;;;;;5043924;28;19913;-74
2022/11/09 05:10:31;;;;;;;;;;;13.10;94.60;;;;;;5083421;28;19980;-73
2022/11/09 05:12:58;;;;;;;;;;;13.00;94.60;;;;;;5076122;28;19927;-74
2022/11/09 05:15:23;;;;;;;;;;;13.00;94.60;;;;;;5085326;28;19920;-73
2022/11/09 05:17:48;;;;;;;;;;;13.10;94.60;;;;;;5085441;28;19937;-73
2022/11/09 05:20:14;;;;;;;;;;;13.00;94.70;;;;;;5084827;28;20594;-73
2022/11/09 05:25:24;;;;;;;;;;;13.10;94.70;;;;;;5080079;28;19923;-73
2022/11/09 05:27:50;;;;;;;;;;;13.10;94.70;;;;;;5064567;28;19917;-73
2022/11/09 05:30:15;;;;;;;;;;;13.00;94.70;;;;;;5064473;28;19963;-73
2022/11/09 05:32:41;;;;;;;;;;;13.00;94.70;;;;;;5064785;28;20598;-73
2022/11/09 05:35:07;;;;;;;;;;;13.00;94.70;;;;;;5064712;28;19913;-73
2022/11/09 05:37:32;;;;;;;;;;;13.00;94.80;;;;;;5065085;28;19966;-73
2022/11/09 05:39:58;;;;;;;;;;;13.00;94.80;;;;;;5064824;28;19912;-73
2022/11/09 05:42:23;;;;;;;;;;;13.00;94.80;;;;;;5067408;28;19916;-74
2022/11/09 05:44:49;;;;;;;;;;;13.00;94.90;;;;;;5084150;28;19912;-73
2022/11/09 05:47:14;;;;;;;;;;;13.00;94.90;;;;;;5084954;28;19919;-74
2022/11/09 05:49:39;;;;;;;;;;;13.10;94.90;;;;;;5082531;28;19916;-74
2022/11/09 05:52:05;;;;;;;;;;;13.00;95.00;;;;;;5064631;28;20339;-73
2022/11/09 05:54:30;;;;;;;;;;;13.00;94.90;;;;;;5066838;28;19916;-73
2022/11/09 05:56:56;;;;;;;;;;;13.00;95.00;;;;;;5068626;28;19952;-73
2022/11/09 05:59:21;;;;;;;;;;;13.00;95.00;;;;;;5068632;28;19943;-73
2022/11/09 06:01:47;;;;;;;;;;;13.00;95.10;;;;;;5068014;28;19923;-73
2022/11/09 06:04:12;;;;;;;;;;;13.00;95.00;;;;;;5068212;28;19912;-73
2022/11/09 06:06:38;;;;;;;;;;;12.90;95.00;;;;;;5068373;28;19909;-73
2022/11/09 06:09:03;;;;;;;;;;;12.90;95.00;;;;;;5068274;28;20027;-74
2022/11/09 06:11:29;;;;;;;;;;;12.90;95.30;;;;;;5067777;28;19924;-73
2022/11/09 06:13:54;;;;;;;;;;;12.90;95.00;;;;;;5082893;28;20433;-74
2022/11/09 06:16:20;;;;;;;;;;;13.00;95.00;;;;;;5078344;28;19955;-73
2022/11/09 06:18:45;;;;;;;;;;;12.90;95.00;;;;;;5068407;28;19912;-73
2022/11/09 06:21:11;;;;;;;;;;;12.90;95.00;;;;;;5067185;28;19999;-73
2022/11/09 06:23:36;;;;;;;;;;;12.90;94.90;;;;;;5067905;28;19947;-73
2022/11/09 06:26:06;;;;;;;;;;;12.90;95.00;;;;;;5068372;28;19916;-74
2022/11/09 06:28:32;;;;;;;;;;;12.90;95.00;;;;;;5068520;28;20671;-74
2022/11/09 06:30:58;;;;;;;;;;;12.90;95.10;;;;;;5067607;28;19913;-73
2022/11/09 06:33:24;;;;;;;;;;;12.90;95.00;;;;;;5068219;28;20270;-74
2022/11/09 06:35:49;;;;;;;;;;;12.90;95.00;;;;;;5066050;28;19966;-73
2022/11/09 06:38:15;;;;;;;;;;;12.90;95.00;;;;;;5067101;28;19940;-74
2022/11/09 06:40:40;;;;;;;;;;;12.90;95.10;;;;;;5067579;28;20602;-73
2022/11/09 06:43:06;;;;;;;;;;;12.90;95.00;;;;;;5075275;28;19912;-74
2022/11/09 06:45:32;;;;;;;;;;;12.90;95.10;;;;;;5087836;28;20394;-73
2022/11/09 06:47:58;;;;;;;;;;;12.90;95.00;;;;;;5086754;28;19920;-74
2022/11/09 06:50:24;;;;;;;;;;;12.80;95.00;;;;;;5067928;28;19948;-74
2022/11/09 06:52:54;;;;;;;;;;;12.80;95.10;;;;;;5067387;28;19970;-73
2022/11/09 06:55:19;;;;;;;;;;;12.80;95.00;;;;;;5067057;28;19948;-74
2022/11/09 06:57:45;;;;;;;;;;;12.80;95.10;;;;;;5067317;28;20012;-74
2022/11/09 07:00:10;;;;;;;;;;;12.80;95.40;;;;;;5066764;28;19908;-73
2022/11/09 07:02:36;;;;;;;;;;;12.80;95.20;;;;;;5066512;28;19922;-73
2022/11/09 07:05:01;;;;;;;;;;;12.80;95.10;;;;;;5067057;28;20388;-73
2022/11/09 07:07:27;;;;;;;;;;;12.80;95.10;;;;;;5066723;28;19912;-73
2022/11/09 07:09:52;;;;;;;;;;;12.80;95.10;;;;;;5066164;28;19913;-73
2022/11/09 07:12:18;;;;;;;;;;;12.80;95.20;;;;;;5067156;28;19928;-73
2022/11/09 07:14:43;;;;;;;;;;;12.80;95.10;;;;;;5086223;28;20566;-74
2022/11/09 07:17:09;;;;;;;;;;;12.80;95.10;;;;;;5085989;28;19912;-74
2022/11/09 07:19:34;;;;;;;;;;;12.80;95.10;;;;;;5086168;28;19966;-73
2022/11/09 07:22:00;;;;;;;;;;;12.80;95.10;;;;;;5082285;28;19917;-73
2022/11/09 07:24:25;;;;;;;;;;;12.80;95.10;;;;;;5065882;28;19912;-73
2022/11/09 07:26:51;;;;;;;;;;;12.80;95.10;;;;;;5065929;28;19963;-73
2022/11/09 07:29:16;;;;;;;;;;;12.80;95.10;;;;;;5066090;28;19912;-73
2022/11/09 07:31:42;;;;;;;;;;;12.80;95.10;;;;;;5065632;28;19916;-73
2022/11/09 07:34:07;;;;;;;;;;;12.80;95.10;;;;;;5065816;28;19913;-73
2022/11/09 07:36:35;;;;;;;;;;;12.80;95.10;;;;;;5066304;28;19917;-73
2022/11/09 07:39:01;;;;;;;;;;;12.80;95.10;;;;;;5066859;28;19927;-74
2022/11/09 07:41:26;;;;;;;;;;;12.80;95.10;;;;;;5065118;28;20285;-73
2022/11/09 07:43:52;;;;;;;;;;;12.80;95.00;;;;;;5080043;28;19916;-73
2022/11/09 07:46:17;;;;;;;;;;;12.80;95.10;;;;;;5085846;28;19916;-73
2022/11/09 07:48:43;;;;;;;;;;;12.80;95.10;;;;;;5085704;28;19923;-73
2022/11/09 07:51:08;;;;;;;;;;;12.80;95.00;;;;;;5070572;28;20024;-73
2022/11/09 07:53:34;;;;;;;;;;;12.80;95.10;;;;;;5065446;28;19917;-73
2022/11/09 07:56:00;;;;;;;;;;;12.80;95.10;;;;;;5065713;28;20578;-73
2022/11/09 07:58:26;;;;;;;;;;;12.80;95.10;;;;;;5065668;28;19924;-73
2022/11/09 08:00:51;;;;;;;;;;;12.80;95.10;;;;;;5065598;28;19912;-73
2022/11/09 08:03:17;;;;;;;;;;;12.80;95.10;;;;;;5065552;28;19919;-73
2022/11/09 08:05:43;;;;;;;;;;;12.80;95.10;;;;;;5065078;28;19942;-74
2022/11/09 08:08:09;;;;;;;;;;;12.80;95.10;;;;;;5066282;28;20298;-73
2022/11/09 08:10:35;;;;;;;;;;;12.70;95.10;;;;;;5065884;28;20587;-73
2022/11/09 08:13:02;;;;;;;;;;;12.70;95.10;;;;;;5071801;28;20011;-73
2022/11/09 08:15:27;;;;;;;;;;;12.80;95.10;;;;;;5063635;28;19919;-73
2022/11/09 08:17:53;;;;;;;;;;;12.70;95.00;;;;;;5064876;28;19916;-73
2022/11/09 08:20:19;;;;;;;;;;;12.70;95.10;;;;;;5065645;28;19942;-74
2022/11/09 08:22:45;;;;;;;;;;;12.70;95.10;;;;;;5065451;28;20069;-74
2022/11/09 08:25:11;;;;;;;;;;;12.70;95.00;;;;;;5065597;28;19916;-73
2022/11/09 08:27:39;;;;;;;;;;;12.70;95.00;;;;;;5065571;28;20602;-74
2022/11/09 08:30:11;;;;;;;;;;;12.70;95.10;;;;;;5065560;28;19927;-73
2022/11/09 08:32:36;;;;;;;;;;;12.70;95.10;;;;;;5062998;28;19924;-74
2022/11/09 08:35:02;;;;;;;;;;;12.70;95.10;;;;;;5065136;28;19922;-74
2022/11/09 08:37:28;;;;;;;;;;;12.70;95.40;;;;;;5065510;28;19912;-74
2022/11/09 08:39:54;;;;;;;;;;;12.70;95.20;;;;;;5065615;28;19922;-73
2022/11/09 08:42:19;;;;;;;;;;;12.70;95.10;;;;;;5062686;28;19909;-74
2022/11/09 08:44:45;;;;;;;;;;;12.70;95.10;;;;;;5085713;28;19919;-74
2022/11/09 08:47:10;;;;;;;;;;;12.70;95.10;;;;;;5065185;28;19917;-74
2022/11/09 08:49:36;;;;;;;;;;;12.70;95.10;;;;;;5060024;28;19946;-73
2022/11/09 08:52:01;;;;;;;;;;;12.70;95.10;;;;;;5065215;28;19942;-73
2022/11/09 08:54:27;;;;;;;;;;;12.70;95.10;;;;;;5065183;28;19998;-73
2022/11/09 08:56:55;;;;;;;;;;;12.70;95.10;;;;;;5065183;28;20395;-73
2022/11/09 08:59:21;;;;;;;;;;;12.70;95.10;;;;;;5064558;28;19913;-73
2022/11/09 09:01:47;;;;;;;;;;;12.70;95.10;;;;;;5065532;28;20377;-73
2022/11/09 09:04:12;;;;;;;;;;;12.80;95.10;;;;;;5064967;28;19966;-73
2022/11/09 09:06:37;;;;;;;;;;;12.80;95.40;;;;;;5064746;28;20003;-73
2022/11/09 09:09:03;;;;;;;;;;;12.80;95.10;;;;;;5064966;28;20464;-74
2022/11/09 09:11:28;;;;;;;;;;;12.80;95.00;;;;;;5065022;28;19928;-73
2022/11/09 09:13:54;;;;;;;;;;;12.80;95.10;;;;;;5079628;28;19924;-73
2022/11/09 09:16:19;;;;;;;;;;;12.80;95.10;;;;;;5085373;28;19912;-74
2022/11/09 09:18:46;;;;;;;;;;;12.80;95.00;;;;;;5083152;28;19943;-73
2022/11/09 09:21:12;;;;;;;;;;;12.80;95.00;;;;;;5064647;28;19952;-73
2022/11/09 09:23:37;;;;;;;;;;;12.90;95.00;;;;;;5063697;28;19959;-74
2022/11/09 09:26:03;;;;;;;;;;;12.90;95.00;;;;;;5064980;28;19916;-73
2022/11/09 09:28:29;;;;;;;;;;;12.90;94.90;;;;;;5066753;28;19923;-74
2022/11/09 09:30:56;;;;;;;;;;;12.90;94.90;;;;;;5067365;28;19919;-73
2022/11/09 09:33:22;;;;;;;;;;;12.90;94.90;;;;;;5068826;28;19920;-73
2022/11/09 09:35:47;;;;;;;;;;;13.00;94.80;;;;;;5069969;28;19986;-74
2022/11/09 09:38:13;;;;;;;;;;;13.00;94.90;;;;;;5067053;28;19921;-74
2022/11/09 09:40:45;;;;;;;;;;;13.00;94.90;;;;;;5067509;28;20470;-73
2022/11/09 09:43:16;;;;;;;;;;;13.00;94.80;;;;;;5077295;28;19912;-74
2022/11/09 09:45:47;;;;;;;;;;;13.00;94.90;;;;;;5089218;28;20360;-73
2022/11/09 09:48:20;;;;;;;;;;;13.10;94.80;;;;;;5089371;28;19958;-73
2022/11/09 09:50:48;;;;;;;;;;;13.10;94.80;;;;;;5077690;28;20281;-74
2022/11/09 09:53:13;;;;;;;;;;;13.20;94.80;;;;;;5069990;28;19920;-73
2022/11/09 09:55:41;;;;;;;;;;;13.20;94.80;;;;;;5068295;28;19924;-73
2022/11/09 09:58:10;;;;;;;;;;;13.20;94.70;;;;;;5063187;28;19913;-74
2022/11/09 10:00:37;;;;;;;;;;;13.20;94.70;;;;;;5060453;28;19943;-73
2022/11/09 10:03:03;;;;;;;;;;;13.20;94.60;;;;;;5066789;28;19920;-74
2022/11/09 10:05:40;;;;;;;;;;;13.30;94.60;;;;;;5066539;28;19912;-73
2022/11/09 10:08:14;;;;;;;;;;;13.30;94.70;;;;;;5064068;28;20304;-73
2022/11/09 10:10:58;;;;;;;;;;;13.30;94.60;;;;;;5085188;28;19966;-73
2022/11/09 10:13:24;;;;;;;;;;;13.20;94.50;;;;;;5077734;28;19956;-73
2022/11/09 10:15:49;;;;;;;;;;;13.30;94.60;;;;;;5086279;28;20004;-73
2022/11/09 10:18:33;;;;;;;;;;;13.30;94.50;;;;;;5081547;28;20361;-73
2022/11/09 10:21:07;;;;;;;;;;;13.30;94.50;;;;;;5063984;28;19916;-74
2022/11/09 10:23:42;;;;;;;;;;;13.40;94.40;;;;;;5065916;28;19921;-73
2022/11/09 10:26:13;;;;;;;;;;;13.40;94.40;;;;;;5075130;28;19955;-73
2022/11/09 10:28:40;;;;;;;;;;;13.40;94.40;;;;;;5061945;28;20595;-74
2022/11/09 10:31:13;;;;;;;;;;;13.50;94.40;;;;;;5045281;28;19974;-74
2022/11/09 10:33:39;;;;;;;;;;;13.50;94.30;;;;;;5045769;28;20018;-74
2022/11/09 10:36:31;;;;;;;;;;;13.50;94.30;;;;;;5045586;28;19913;-73
2022/11/09 10:38:58;;;;;;;;;;;13.50;94.30;;;;;;5046162;28;19920;-73
2022/11/09 10:41:36;;;;;;;;;;;13.50;94.20;;;;;;5044859;28;19944;-73
2022/11/09 10:44:02;;;;;;;;;;;13.50;94.20;;;;;;5084482;28;19916;-73
2022/11/09 10:46:27;;;;;;;;;;;13.60;94.20;;;;;;5086291;28;19912;-73
2022/11/09 10:48:54;;;;;;;;;;;13.60;94.20;;;;;;5068176;28;20504;-73
2022/11/09 10:51:39;;;;;;;;;;;13.60;94.20;;;;;;5058529;28;19918;-73
2022/11/09 10:54:14;;;;;;;;;;;13.60;94.20;;;;;;5064917;28;19916;-73
2022/11/09 10:56:47;;;;;;;;;;;13.60;94.10;;;;;;5065485;28;19912;-74
2022/11/09 10:59:31;;;;;;;;;;;13.60;94.00;;;;;;5066812;28;19947;-73
2022/11/09 11:01:57;;;;;;;;;;;13.60;94.00;;;;;;5045731;28;20310;-74
2022/11/09 11:04:23;;;;;;;;;;;13.60;94.10;;;;;;5045403;28;19919;-73
2022/11/09 11:06:49;;;;;;;;;;;13.60;94.10;;;;;;5045531;28;19959;-73
2022/11/09 11:09:17;;;;;;;;;;;13.60;94.00;;;;;;5045078;28;19955;-74
2022/11/09 11:11:43;;;;;;;;;;;13.70;94.00;;;;;;5045117;28;19920;-74
2022/11/09 11:14:08;;;;;;;;;;;13.70;93.70;;;;;;5081580;28;20367;-74
2022/11/09 11:16:34;;;;;;;;;;;13.80;93.90;;;;;;5073477;28;20562;-74
2022/11/09 11:19:00;;;;;;;;;;;13.80;93.80;;;;;;5065538;28;19918;-74
2022/11/09 11:21:26;;;;;;;;;;;13.80;93.70;;;;;;5064997;28;20003;-74
2022/11/09 11:24:11;;;;;;;;;;;13.80;93.80;;;;;;5065553;28;20521;-74
2022/11/09 11:26:39;;;;;;;;;;;13.90;93.60;;;;;;5065896;28;19912;-74
2022/11/09 11:29:09;;;;;;;;;;;13.90;93.60;;;;;;5065682;28;20524;-74
2022/11/09 11:31:35;;;;;;;;;;;13.90;93.40;;;;;;5063780;28;19919;-74
2022/11/09 11:34:02;;;;;;;;;;;13.90;93.20;;;;;;5065443;28;19913;-73
2022/11/09 11:36:27;;;;;;;;;;;13.90;93.30;;;;;;5066154;28;19912;-74
2022/11/09 11:39:14;;;;;;;;;;;14.00;93.40;;;;;;5064616;28;19916;-74
2022/11/09 11:41:40;;;;;;;;;;;14.00;93.40;;;;;;5066011;28;20026;-74
2022/11/09 11:44:18;;;;;;;;;;;14.00;93.30;;;;;;5081578;28;20537;-73
2022/11/09 11:46:46;;;;;;;;;;;14.00;93.30;;;;;;5086008;28;19957;-74
2022/11/09 11:49:30;;;;;;;;;;;14.00;93.50;;;;;;5081295;28;19920;-74
2022/11/09 11:52:08;;;;;;;;;;;14.00;93.50;;;;;;5056003;28;19928;-74
2022/11/09 11:54:33;;;;;;;;;;;14.00;93.80;;;;;;5065673;28;20635;-74
2022/11/09 11:57:08;;;;;;;;;;;14.00;93.40;;;;;;5065418;28;19919;-74
2022/11/09 11:59:49;;;;;;;;;;;14.00;93.40;;;;;;5065078;28;19923;-73
2022/11/09 12:02:17;;;;;;;;;;;14.00;93.30;;;;;;5065150;28;19917;-74
2022/11/09 12:04:52;;;;;;;;;;;14.00;93.10;;;;;;5065814;28;19919;-74
2022/11/09 12:07:20;;;;;;;;;;;14.00;93.80;;;;;;5079893;28;20251;-74
2022/11/09 12:09:53;;;;;;;;;;;14.00;93.10;;;;;;5064661;28;19958;-74
2022/11/09 12:12:30;;;;;;;;;;;14.00;93.20;;;;;;5066640;28;19921;-74
2022/11/09 12:14:56;;;;;;;;;;;14.00;93.30;;;;;;5082469;28;20311;-74
2022/11/09 12:17:21;;;;;;;;;;;14.10;93.20;;;;;;5064687;28;19912;-74
2022/11/09 12:19:57;;;;;;;;;;;14.10;92.90;;;;;;5067921;28;20521;-74
2022/11/09 12:22:31;;;;;;;;;;;14.10;92.60;;;;;;5085456;28;19947;-73
2022/11/09 12:25:01;;;;;;;;;;;14.10;92.80;;;;;;5084880;28;19981;-75
2022/11/09 12:28:02;;;;;;;;;;;14.10;92.70;;;;;;5064352;28;20410;-73
2022/11/09 12:30:42;;;;;;;;;;;14.10;93.00;;;;;;5087596;28;19915;-73
2022/11/09 12:33:09;;;;;;;;;;;14.10;92.80;;;;;;5067519;28;19916;-73
2022/11/09 12:35:50;;;;;;;;;;;14.10;93.00;;;;;;5064444;28;20238;-74
2022/11/09 12:38:20;;;;;;;;;;;14.10;92.90;;;;;;5066093;28;19958;-75
2022/11/09 12:40:50;;;;;;;;;;;14.20;93.00;;;;;;5065032;28;19920;-74
2022/11/09 12:43:37;;;;;;;;;;;14.20;92.50;;;;;;5073621;28;19920;-74
2022/11/09 12:46:04;;;;;;;;;;;14.20;92.70;;;;;;5084975;28;20813;-73
2022/11/09 12:48:34;;;;;;;;;;;14.20;92.70;;;;;;5084771;28;19915;-74
2022/11/09 12:51:00;;;;;;;;;;;14.20;92.70;;;;;;5071165;28;19960;-74
2022/11/09 12:53:31;;;;;;;;;;;14.20;92.20;;;;;;5065101;28;19991;-74
2022/11/09 12:56:13;;;;;;;;;;;14.20;92.70;;;;;;5071676;28;20477;-73
2022/11/09 12:58:39;;;;;;;;;;;14.20;92.50;;;;;;5084670;28;19908;-74
2022/11/09 13:01:06;;;;;;;;;;;14.30;92.70;;;;;;5055365;28;19913;-74
2022/11/09 13:03:33;;;;;;;;;;;14.30;92.50;;;;;;5048300;28;19916;-74
2022/11/09 13:06:25;;;;;;;;;;;14.20;92.60;;;;;;5064120;28;19920;-74
2022/11/09 13:09:04;;;;;;;;;;;14.20;92.60;;;;;;5063034;28;19909;-74
2022/11/09 13:11:30;;;;;;;;;;;14.20;92.40;;;;;;5078435;28;19923;-73
2022/11/09 13:14:15;;;;;;;;;;;14.20;92.70;;;;;;5075465;28;20446;-74
2022/11/09 13:16:41;;;;;;;;;;;14.20;93.00;;;;;;5083634;28;19915;-73
2022/11/09 13:19:07;;;;;;;;;;;14.20;93.00;;;;;;5084166;28;20009;-75
2022/11/09 13:21:34;;;;;;;;;;;14.20;92.90;;;;;;5084299;28;20276;-74
2022/11/09 13:24:19;;;;;;;;;;;14.10;92.80;;;;;;5082499;28;19912;-73
2022/11/09 13:26:44;;;;;;;;;;;14.10;92.60;;;;;;5064211;28;19915;-73
2022/11/09 13:29:39;;;;;;;;;;;14.20;92.80;;;;;;5063991;28;19913;-74
2022/11/09 13:32:11;;;;;;;;;;;14.20;93.10;;;;;;5051611;28;20102;-74
2022/11/09 13:34:55;;;;;;;;;;;14.20;92.90;;;;;;5043925;28;19913;-74
2022/11/09 13:37:36;;;;;;;;;;;14.10;92.50;;;;;;5061830;28;19916;-73
2022/11/09 13:40:20;;;;;;;;;;;14.20;92.90;;;;;;5083118;28;19916;-73
2022/11/09 13:42:55;;;;;;;;;;;14.20;92.50;;;;;;5075720;28;19912;-73
2022/11/09 13:45:23;;;;;;;;;;;14.20;92.60;;;;;;5084384;28;19947;-73
2022/11/09 13:47:49;;;;;;;;;;;14.20;92.80;;;;;;5084486;28;19927;-73
2022/11/09 13:50:19;;;;;;;;;;;14.20;93.10;;;;;;5076423;28;19913;-73
2022/11/09 13:52:48;;;;;;;;;;;14.20;92.30;;;;;;5080849;28;19920;-73
2022/11/09 13:55:16;;;;;;;;;;;14.20;92.50;;;;;;5063990;28;19916;-73
2022/11/09 13:57:42;;;;;;;;;;;14.20;92.50;;;;;;5063764;28;19912;-73
2022/11/09 14:00:22;;;;;;;;;;;14.20;92.40;;;;;;5057337;28;20464;-73
2022/11/09 14:02:56;;;;;;;;;;;14.20;92.70;;;;;;5044297;28;19913;-73
2022/11/09 14:05:26;;;;;;;;;;;14.20;92.60;;;;;;5050653;28;19912;-73
2022/11/09 14:07:53;;;;;;;;;;;14.20;92.40;;;;;;5057791;28;19942;-73
2022/11/09 14:10:18;;;;;;;;;;;14.30;92.60;;;;;;5062108;28;20718;-73
2022/11/09 14:13:02;;;;;;;;;;;14.20;92.30;;;;;;5065988;28;19926;-73
2022/11/09 14:15:47;;;;;;;;;;;14.30;92.70;;;;;;5084222;28;19918;-73
2022/11/09 14:18:31;;;;;;;;;;;14.20;92.50;;;;;;5085645;28;20011;-73
2022/11/09 14:21:11;;;;;;;;;;;14.20;92.70;;;;;;5073683;28;20007;-73
2022/11/09 14:23:37;;;;;;;;;;;14.20;92.80;;;;;;5066211;28;19912;-73